Terminal Aerodrome Forecast
Issued by NWS Albuquerque, NM

Current Version | Previous Version | Text Only | Print | Product List | Glossary On
Versions: 1 2 3 4 5 6 7 8 9 10 11 12 13 14 15 16
464
FTUS45 KABQ 261858 AAA
TAFABQ
TAF AMD
KABQ 261858Z 2619/2718 28017G27KT P6SM BKN200
     FM270200 29009KT P6SM BKN120
     FM270900 23007KT P6SM OVC100
     FM271600 23016G24KT P6SM BKN080=

USA.gov is the U.S. government's official web portal to all federal, state and local government web resources and services.